HECA/CAI METAR and TAF weather

Enter ICAO airport designator
Station Type Date Time Source
HECA METAR 2019/10/15 08:30 UTC NOAA

HECA 150830Z 32003KT CAVOK 27/21 Q1015 NOSIG


Station Type Date Time Source
HECA Decoded METAR 2019/10/15 08:30 UTC NOAA

Cairo Airport, Egypt (HECA) 30-08N 031-24E 74M
Oct 15, 2019 - 04:30 AM EDT / 2019.10.15 0830 UTC
Wind: from the NW (320 degrees) at 3 MPH (3 KT):0
Visibility: greater than 7 mile(s):0
Temperature: 80 F (27 C)
Dew Point: 69 F (21 C)
Relative Humidity: 69%
Pressure (altimeter): 29.97 in. Hg (1015 hPa)
ob: HECA 150830Z 32003KT CAVOK 27/21 Q1015 NOSIG
cycle: 8

Station Type Date Time Source
HECA TAF 2019/10/15 06:51 UTC NOAA

TAF TAF HECA 150500Z 1506/1612 7T 08KT 9999 FEW025

Example: see airport list